sensor_id;sensor_type;location;lat;lon;timestamp;temperature;humidity
48579;DHT22;34357;51.948;6.132;2023-02-01T00:00:19;5.10;84.00
48579;DHT22;34357;51.948;6.132;2023-02-01T00:02:45;5.10;83.90
48579;DHT22;34357;51.948;6.132;2023-02-01T00:05:10;5.10;83.60
48579;DHT22;34357;51.948;6.132;2023-02-01T00:07:37;5.20;83.10
48579;DHT22;34357;51.948;6.132;2023-02-01T00:10:04;5.20;83.00
48579;DHT22;34357;51.948;6.132;2023-02-01T00:12:31;5.10;83.10
48579;DHT22;34357;51.948;6.132;2023-02-01T00:14:56;5.10;83.30
48579;DHT22;34357;51.948;6.132;2023-02-01T00:17:22;5.10;82.40
48579;DHT22;34357;51.948;6.132;2023-02-01T00:19:48;5.10;82.20
48579;DHT22;34357;51.948;6.132;2023-02-01T00:22:14;5.10;82.30
48579;DHT22;34357;51.948;6.132;2023-02-01T00:24:40;5.10;81.90
48579;DHT22;34357;51.948;6.132;2023-02-01T00:27:05;5.00;82.00
48579;DHT22;34357;51.948;6.132;2023-02-01T00:29:31;5.00;82.20
48579;DHT22;34357;51.948;6.132;2023-02-01T00:31:57;5.00;81.80
48579;DHT22;34357;51.948;6.132;2023-02-01T00:34:23;5.10;81.30
48579;DHT22;34357;51.948;6.132;2023-02-01T00:36:49;5.10;81.30
48579;DHT22;34357;51.948;6.132;2023-02-01T00:39:15;5.10;81.40
48579;DHT22;34357;51.948;6.132;2023-02-01T00:41:41;5.10;81.10
48579;DHT22;34357;51.948;6.132;2023-02-01T00:44:07;5.20;81.10
48579;DHT22;34357;51.948;6.132;2023-02-01T00:46:33;5.20;81.10
48579;DHT22;34357;51.948;6.132;2023-02-01T00:49:00;5.10;81.20
48579;DHT22;34357;51.948;6.132;2023-02-01T00:51:27;5.10;81.50
48579;DHT22;34357;51.948;6.132;2023-02-01T00:53:54;5.10;81.50
48579;DHT22;34357;51.948;6.132;2023-02-01T00:56:22;5.10;81.60
48579;DHT22;34357;51.948;6.132;2023-02-01T00:58:47;5.10;81.70
48579;DHT22;34357;51.948;6.132;2023-02-01T01:01:20;5.20;81.50
48579;DHT22;34357;51.948;6.132;2023-02-01T01:03:49;5.30;81.30
48579;DHT22;34357;51.948;6.132;2023-02-01T01:06:21;5.30;81.30
48579;DHT22;34357;51.948;6.132;2023-02-01T01:08:48;5.30;81.50
48579;DHT22;34357;51.948;6.132;2023-02-01T01:11:19;5.20;81.70
48579;DHT22;34357;51.948;6.132;2023-02-01T01:13:47;5.20;82.00
48579;DHT22;34357;51.948;6.132;2023-02-01T01:16:14;5.20;82.00
48579;DHT22;34357;51.948;6.132;2023-02-01T01:18:39;5.20;82.20
48579;DHT22;34357;51.948;6.132;2023-02-01T01:21:07;5.10;82.40
48579;DHT22;34357;51.948;6.132;2023-02-01T01:23:34;5.10;82.80
48579;DHT22;34357;51.948;6.132;2023-02-01T01:26:00;5.10;83.10
48579;DHT22;34357;51.948;6.132;2023-02-01T01:28:25;5.00;83.40
48579;DHT22;34357;51.948;6.132;2023-02-01T01:30:51;5.00;83.70
48579;DHT22;34357;51.948;6.132;2023-02-01T01:33:17;5.00;83.70
48579;DHT22;34357;51.948;6.132;2023-02-01T01:35:43;4.90;84.00
48579;DHT22;34357;51.948;6.132;2023-02-01T01:38:10;4.90;84.20
48579;DHT22;34357;51.948;6.132;2023-02-01T01:40:37;4.90;84.30
48579;DHT22;34357;51.948;6.132;2023-02-01T01:43:12;4.90;84.70
48579;DHT22;34357;51.948;6.132;2023-02-01T01:45:38;4.90;84.50
48579;DHT22;34357;51.948;6.132;2023-02-01T01:48:08;4.90;84.60
48579;DHT22;34357;51.948;6.132;2023-02-01T01:50:54;4.90;84.90
48579;DHT22;34357;51.948;6.132;2023-02-01T01:53:28;4.90;84.70
48579;DHT22;34357;51.948;6.132;2023-02-01T01:55:56;4.90;84.70
48579;DHT22;34357;51.948;6.132;2023-02-01T01:58:27;4.90;84.90
48579;DHT22;34357;51.948;6.132;2023-02-01T02:00:54;4.80;85.00
48579;DHT22;34357;51.948;6.132;2023-02-01T02:03:35;4.90;85.20
48579;DHT22;34357;51.948;6.132;2023-02-01T02:06:04;4.90;85.10
48579;DHT22;34357;51.948;6.132;2023-02-01T02:08:33;4.80;85.30
48579;DHT22;34357;51.948;6.132;2023-02-01T02:10:58;4.90;85.00
48579;DHT22;34357;51.948;6.132;2023-02-01T02:13:38;4.80;85.10
48579;DHT22;34357;51.948;6.132;2023-02-01T02:16:24;4.90;84.90
48579;DHT22;34357;51.948;6.132;2023-02-01T02:21:52;5.00;84.50
48579;DHT22;34357;51.948;6.132;2023-02-01T02:24:32;5.00;84.40
48579;DHT22;34357;51.948;6.132;2023-02-01T02:34:40;5.10;83.80
48579;DHT22;34357;51.948;6.132;2023-02-01T02:37:42;5.00;83.80
48579;DHT22;34357;51.948;6.132;2023-02-01T02:43:14;5.10;83.50
48579;DHT22;34357;51.948;6.132;2023-02-01T02:49:25;5.10;83.30
48579;DHT22;34357;51.948;6.132;2023-02-01T02:52:15;5.10;83.30
48579;DHT22;34357;51.948;6.132;2023-02-01T02:55:03;5.10;83.60
48579;DHT22;34357;51.948;6.132;2023-02-01T02:57:34;5.10;83.50
48579;DHT22;34357;51.948;6.132;2023-02-01T03:00:23;5.00;83.70
48579;DHT22;34357;51.948;6.132;2023-02-01T03:03:08;5.00;83.80
48579;DHT22;34357;51.948;6.132;2023-02-01T03:05:53;5.00;83.80
48579;DHT22;34357;51.948;6.132;2023-02-01T03:11:06;4.90;84.20
48579;DHT22;34357;51.948;6.132;2023-02-01T03:13:46;4.90;84.40
48579;DHT22;34357;51.948;6.132;2023-02-01T03:16:21;4.90;84.30
48579;DHT22;34357;51.948;6.132;2023-02-01T03:19:02;4.90;84.80
48579;DHT22;34357;51.948;6.132;2023-02-01T03:21:53;4.90;84.60
48579;DHT22;34357;51.948;6.132;2023-02-01T03:32:19;4.90;85.00
48579;DHT22;34357;51.948;6.132;2023-02-01T03:34:46;4.90;85.10
48579;DHT22;34357;51.948;6.132;2023-02-01T03:37:17;4.90;85.20
48579;DHT22;34357;51.948;6.132;2023-02-01T03:39:48;4.90;85.30
48579;DHT22;34357;51.948;6.132;2023-02-01T03:42:26;4.90;85.20
48579;DHT22;34357;51.948;6.132;2023-02-01T03:45:07;4.90;85.20
48579;DHT22;34357;51.948;6.132;2023-02-01T03:47:37;4.90;85.40
48579;DHT22;34357;51.948;6.132;2023-02-01T03:50:18;4.90;85.30
48579;DHT22;34357;51.948;6.132;2023-02-01T03:52:51;4.90;85.50
48579;DHT22;34357;51.948;6.132;2023-02-01T03:55:22;4.90;85.40
48579;DHT22;34357;51.948;6.132;2023-02-01T03:57:59;4.90;85.40
48579;DHT22;34357;51.948;6.132;2023-02-01T04:00:27;4.90;85.40
48579;DHT22;34357;51.948;6.132;2023-02-01T04:02:55;4.90;85.60
48579;DHT22;34357;51.948;6.132;2023-02-01T04:05:21;4.90;85.70
48579;DHT22;34357;51.948;6.132;2023-02-01T04:08:07;4.90;85.80
48579;DHT22;34357;51.948;6.132;2023-02-01T04:10:33;4.90;85.80
48579;DHT22;34357;51.948;6.132;2023-02-01T04:12:59;4.90;85.90
48579;DHT22;34357;51.948;6.132;2023-02-01T04:15:24;4.90;85.90
48579;DHT22;34357;51.948;6.132;2023-02-01T04:17:50;4.90;85.90
48579;DHT22;34357;51.948;6.132;2023-02-01T04:20:16;4.90;85.80
48579;DHT22;34357;51.948;6.132;2023-02-01T04:22:42;4.90;85.80
48579;DHT22;34357;51.948;6.132;2023-02-01T04:25:08;4.90;85.90
48579;DHT22;34357;51.948;6.132;2023-02-01T04:27:35;4.90;86.10
48579;DHT22;34357;51.948;6.132;2023-02-01T04:30:01;4.90;86.10
48579;DHT22;34357;51.948;6.132;2023-02-01T04:32:26;4.90;86.00
48579;DHT22;34357;51.948;6.132;2023-02-01T04:34:52;4.90;86.10
48579;DHT22;34357;51.948;6.132;2023-02-01T04:37:18;4.80;86.30
48579;DHT22;34357;51.948;6.132;2023-02-01T04:39:43;4.90;86.10
48579;DHT22;34357;51.948;6.132;2023-02-01T04:42:09;4.90;86.20
48579;DHT22;34357;51.948;6.132;2023-02-01T04:44:35;4.90;86.20
48579;DHT22;34357;51.948;6.132;2023-02-01T04:47:02;4.80;86.20
48579;DHT22;34357;51.948;6.132;2023-02-01T04:49:28;4.90;86.00
48579;DHT22;34357;51.948;6.132;2023-02-01T04:51:54;5.00;86.00
48579;DHT22;34357;51.948;6.132;2023-02-01T04:54:19;5.10;85.70
48579;DHT22;34357;51.948;6.132;2023-02-01T04:56:45;5.10;85.60
48579;DHT22;34357;51.948;6.132;2023-02-01T04:59:11;5.30;85.20
48579;DHT22;34357;51.948;6.132;2023-02-01T05:01:37;5.30;85.00
48579;DHT22;34357;51.948;6.132;2023-02-01T05:04:03;5.40;84.70
48579;DHT22;34357;51.948;6.132;2023-02-01T05:06:29;5.40;84.80
48579;DHT22;34357;51.948;6.132;2023-02-01T05:08:54;5.30;84.80
48579;DHT22;34357;51.948;6.132;2023-02-01T05:11:20;5.30;84.90
48579;DHT22;34357;51.948;6.132;2023-02-01T05:14:05;5.40;84.80
48579;DHT22;34357;51.948;6.132;2023-02-01T05:16:31;5.40;84.70
48579;DHT22;34357;51.948;6.132;2023-02-01T05:18:57;5.40;84.50
48579;DHT22;34357;51.948;6.132;2023-02-01T05:21:22;5.50;84.10
48579;DHT22;34357;51.948;6.132;2023-02-01T05:23:48;5.60;83.70
48579;DHT22;34357;51.948;6.132;2023-02-01T05:26:32;5.60;83.70
48579;DHT22;34357;51.948;6.132;2023-02-01T05:28:59;5.70;83.50
48579;DHT22;34357;51.948;6.132;2023-02-01T05:31:24;5.70;83.60
48579;DHT22;34357;51.948;6.132;2023-02-01T05:33:50;5.70;83.60
48579;DHT22;34357;51.948;6.132;2023-02-01T05:36:16;5.70;83.60
48579;DHT22;34357;51.948;6.132;2023-02-01T05:38:42;5.70;83.50
48579;DHT22;34357;51.948;6.132;2023-02-01T05:41:07;5.70;83.50
48579;DHT22;34357;51.948;6.132;2023-02-01T05:43:33;5.80;83.30
48579;DHT22;34357;51.948;6.132;2023-02-01T05:45:59;5.80;83.30
48579;DHT22;34357;51.948;6.132;2023-02-01T05:48:25;5.80;83.60
48579;DHT22;34357;51.948;6.132;2023-02-01T05:50:50;5.80;83.50
48579;DHT22;34357;51.948;6.132;2023-02-01T05:53:16;5.90;83.40
48579;DHT22;34357;51.948;6.132;2023-02-01T05:55:42;5.80;83.30
48579;DHT22;34357;51.948;6.132;2023-02-01T05:58:08;5.80;83.40
48579;DHT22;34357;51.948;6.132;2023-02-01T06:00:34;5.90;83.40
48579;DHT22;34357;51.948;6.132;2023-02-01T06:02:59;5.90;83.30
48579;DHT22;34357;51.948;6.132;2023-02-01T06:05:25;5.90;83.00
48579;DHT22;34357;51.948;6.132;2023-02-01T06:07:52;5.90;83.00
48579;DHT22;34357;51.948;6.132;2023-02-01T06:10:18;5.90;82.90
48579;DHT22;34357;51.948;6.132;2023-02-01T06:12:44;5.90;82.90
48579;DHT22;34357;51.948;6.132;2023-02-01T06:15:14;6.00;82.50
48579;DHT22;34357;51.948;6.132;2023-02-01T06:17:43;6.10;82.40
48579;DHT22;34357;51.948;6.132;2023-02-01T06:20:10;6.10;82.30
48579;DHT22;34357;51.948;6.132;2023-02-01T06:22:36;6.10;82.10
48579;DHT22;34357;51.948;6.132;2023-02-01T06:25:04;6.10;81.90
48579;DHT22;34357;51.948;6.132;2023-02-01T06:27:29;6.20;82.00
48579;DHT22;34357;51.948;6.132;2023-02-01T06:29:56;6.20;82.10
48579;DHT22;34357;51.948;6.132;2023-02-01T06:32:22;6.20;81.90
48579;DHT22;34357;51.948;6.132;2023-02-01T06:34:49;6.20;81.90
48579;DHT22;34357;51.948;6.132;2023-02-01T06:37:18;6.30;81.70
48579;DHT22;34357;51.948;6.132;2023-02-01T06:39:44;6.20;81.80
48579;DHT22;34357;51.948;6.132;2023-02-01T06:42:09;6.30;81.60
48579;DHT22;34357;51.948;6.132;2023-02-01T06:44:35;6.20;81.70
48579;DHT22;34357;51.948;6.132;2023-02-01T06:47:02;6.30;81.60
48579;DHT22;34357;51.948;6.132;2023-02-01T06:49:28;6.20;81.70
48579;DHT22;34357;51.948;6.132;2023-02-01T06:51:54;6.30;81.40
48579;DHT22;34357;51.948;6.132;2023-02-01T06:54:20;6.30;81.40
48579;DHT22;34357;51.948;6.132;2023-02-01T06:56:45;6.30;81.40
48579;DHT22;34357;51.948;6.132;2023-02-01T06:59:11;6.30;81.40
48579;DHT22;34357;51.948;6.132;2023-02-01T07:01:37;6.30;81.30
48579;DHT22;34357;51.948;6.132;2023-02-01T07:04:03;6.40;81.00
48579;DHT22;34357;51.948;6.132;2023-02-01T07:06:29;6.30;81.30
48579;DHT22;34357;51.948;6.132;2023-02-01T07:08:55;6.30;81.60
48579;DHT22;34357;51.948;6.132;2023-02-01T07:11:22;6.30;81.50
48579;DHT22;34357;51.948;6.132;2023-02-01T07:13:49;6.20;81.80
48579;DHT22;34357;51.948;6.132;2023-02-01T07:16:17;6.30;81.40
48579;DHT22;34357;51.948;6.132;2023-02-01T07:18:44;6.30;81.50
48579;DHT22;34357;51.948;6.132;2023-02-01T07:21:10;6.30;81.60
48579;DHT22;34357;51.948;6.132;2023-02-01T07:23:36;6.20;81.90
48579;DHT22;34357;51.948;6.132;2023-02-01T07:26:04;6.20;81.80
48579;DHT22;34357;51.948;6.132;2023-02-01T07:28:33;6.20;82.00
48579;DHT22;34357;51.948;6.132;2023-02-01T07:31:07;6.20;82.20
48579;DHT22;34357;51.948;6.132;2023-02-01T07:33:33;6.20;82.10
48579;DHT22;34357;51.948;6.132;2023-02-01T07:36:01;6.10;82.50
48579;DHT22;34357;51.948;6.132;2023-02-01T07:38:28;6.10;82.30
48579;DHT22;34357;51.948;6.132;2023-02-01T07:40:58;6.10;82.40
48579;DHT22;34357;51.948;6.132;2023-02-01T07:43:25;6.10;82.40
48579;DHT22;34357;51.948;6.132;2023-02-01T07:45:52;6.10;82.60
48579;DHT22;34357;51.948;6.132;2023-02-01T07:48:18;6.10;82.50
48579;DHT22;34357;51.948;6.132;2023-02-01T07:50:43;6.00;82.60
48579;DHT22;34357;51.948;6.132;2023-02-01T07:53:09;6.00;82.80
48579;DHT22;34357;51.948;6.132;2023-02-01T07:55:37;6.00;83.00
48579;DHT22;34357;51.948;6.132;2023-02-01T07:58:06;6.00;83.00
48579;DHT22;34357;51.948;6.132;2023-02-01T08:00:32;6.00;83.00
48579;DHT22;34357;51.948;6.132;2023-02-01T08:03:19;5.90;83.20
48579;DHT22;34357;51.948;6.132;2023-02-01T08:05:45;5.90;83.40
48579;DHT22;34357;51.948;6.132;2023-02-01T08:08:11;5.90;83.30
48579;DHT22;34357;51.948;6.132;2023-02-01T08:10:36;5.90;83.40
48579;DHT22;34357;51.948;6.132;2023-02-01T08:13:02;6.00;83.20
48579;DHT22;34357;51.948;6.132;2023-02-01T08:15:29;6.00;83.20
48579;DHT22;34357;51.948;6.132;2023-02-01T08:17:55;6.00;83.10
48579;DHT22;34357;51.948;6.132;2023-02-01T08:20:21;6.10;83.00
48579;DHT22;34357;51.948;6.132;2023-02-01T08:22:56;6.20;82.70
48579;DHT22;34357;51.948;6.132;2023-02-01T08:25:23;6.30;82.40
48579;DHT22;34357;51.948;6.132;2023-02-01T08:27:51;6.30;82.60
48579;DHT22;34357;51.948;6.132;2023-02-01T08:30:17;6.20;82.70
48579;DHT22;34357;51.948;6.132;2023-02-01T08:32:43;6.10;83.00
48579;DHT22;34357;51.948;6.132;2023-02-01T08:35:09;6.10;82.80
48579;DHT22;34357;51.948;6.132;2023-02-01T08:37:34;6.10;83.10
48579;DHT22;34357;51.948;6.132;2023-02-01T08:40:00;6.10;83.00
48579;DHT22;34357;51.948;6.132;2023-02-01T08:42:26;6.10;82.90
48579;DHT22;34357;51.948;6.132;2023-02-01T08:45:11;6.20;82.80
48579;DHT22;34357;51.948;6.132;2023-02-01T08:47:37;6.40;82.40
48579;DHT22;34357;51.948;6.132;2023-02-01T08:50:03;6.50;82.00
48579;DHT22;34357;51.948;6.132;2023-02-01T08:52:29;6.50;81.70
48579;DHT22;34357;51.948;6.132;2023-02-01T08:54:55;6.50;81.70
48579;DHT22;34357;51.948;6.132;2023-02-01T08:57:20;6.50;81.80
48579;DHT22;34357;51.948;6.132;2023-02-01T08:59:46;6.60;81.30
48579;DHT22;34357;51.948;6.132;2023-02-01T09:02:16;6.70;81.00
48579;DHT22;34357;51.948;6.132;2023-02-01T09:04:42;6.70;81.30
48579;DHT22;34357;51.948;6.132;2023-02-01T09:07:09;6.80;81.30
48579;DHT22;34357;51.948;6.132;2023-02-01T09:09:35;6.80;81.00
48579;DHT22;34357;51.948;6.132;2023-02-01T09:12:01;6.90;81.00
48579;DHT22;34357;51.948;6.132;2023-02-01T09:14:27;6.90;81.00
48579;DHT22;34357;51.948;6.132;2023-02-01T09:16:53;6.90;81.10
48579;DHT22;34357;51.948;6.132;2023-02-01T09:19:19;6.90;80.80
48579;DHT22;34357;51.948;6.132;2023-02-01T09:21:45;7.00;80.80
48579;DHT22;34357;51.948;6.132;2023-02-01T09:24:11;6.90;80.90
48579;DHT22;34357;51.948;6.132;2023-02-01T09:26:37;6.90;81.00
48579;DHT22;34357;51.948;6.132;2023-02-01T09:29:04;6.90;80.90
48579;DHT22;34357;51.948;6.132;2023-02-01T09:31:35;6.90;80.90
48579;DHT22;34357;51.948;6.132;2023-02-01T09:34:02;6.90;81.00
48579;DHT22;34357;51.948;6.132;2023-02-01T09:36:28;7.00;81.00
48579;DHT22;34357;51.948;6.132;2023-02-01T09:38:54;7.20;80.60
48579;DHT22;34357;51.948;6.132;2023-02-01T09:41:30;7.30;80.40
48579;DHT22;34357;51.948;6.132;2023-02-01T09:46:48;7.30;80.30
48579;DHT22;34357;51.948;6.132;2023-02-01T09:49:22;7.30;80.50
48579;DHT22;34357;51.948;6.132;2023-02-01T09:51:52;7.30;80.50
48579;DHT22;34357;51.948;6.132;2023-02-01T09:54:22;7.30;80.70
48579;DHT22;34357;51.948;6.132;2023-02-01T09:57:02;7.40;80.60
48579;DHT22;34357;51.948;6.132;2023-02-01T09:59:40;7.40;80.40
48579;DHT22;34357;51.948;6.132;2023-02-01T10:02:17;7.40;80.70
48579;DHT22;34357;51.948;6.132;2023-02-01T10:04:44;7.40;80.30
48579;DHT22;34357;51.948;6.132;2023-02-01T10:10:32;7.60;80.20
48579;DHT22;34357;51.948;6.132;2023-02-01T10:16:15;7.60;79.80
48579;DHT22;34357;51.948;6.132;2023-02-01T10:27:14;7.40;80.20
48579;DHT22;34357;51.948;6.132;2023-02-01T10:29:42;7.40;80.00
48579;DHT22;34357;51.948;6.132;2023-02-01T10:32:22;7.40;80.10
48579;DHT22;34357;51.948;6.132;2023-02-01T10:35:18;7.40;79.60
48579;DHT22;34357;51.948;6.132;2023-02-01T10:37:47;7.40;79.70
48579;DHT22;34357;51.948;6.132;2023-02-01T10:40:22;7.50;79.80
48579;DHT22;34357;51.948;6.132;2023-02-01T10:42:57;7.40;80.50
48579;DHT22;34357;51.948;6.132;2023-02-01T10:45:27;7.30;82.00
48579;DHT22;34357;51.948;6.132;2023-02-01T10:47:55;7.20;83.40
48579;DHT22;34357;51.948;6.132;2023-02-01T10:50:35;7.10;84.10
48579;DHT22;34357;51.948;6.132;2023-02-01T10:58:30;6.90;84.90
48579;DHT22;34357;51.948;6.132;2023-02-01T11:01:09;6.90;85.40
48579;DHT22;34357;51.948;6.132;2023-02-01T11:04:04;6.80;86.10
48579;DHT22;34357;51.948;6.132;2023-02-01T11:06:33;6.80;86.60
48579;DHT22;34357;51.948;6.132;2023-02-01T11:11:53;6.50;87.30
48579;DHT22;34357;51.948;6.132;2023-02-01T11:14:27;6.40;87.50
48579;DHT22;34357;51.948;6.132;2023-02-01T11:16:57;6.40;88.00
48579;DHT22;34357;51.948;6.132;2023-02-01T11:19:23;6.40;88.20
48579;DHT22;34357;51.948;6.132;2023-02-01T11:21:58;6.40;88.00
48579;DHT22;34357;51.948;6.132;2023-02-01T11:24:34;6.50;88.00
48579;DHT22;34357;51.948;6.132;2023-02-01T11:27:06;6.50;87.30
48579;DHT22;34357;51.948;6.132;2023-02-01T11:29:43;6.60;87.40
48579;DHT22;34357;51.948;6.132;2023-02-01T11:32:12;6.60;87.20
48579;DHT22;34357;51.948;6.132;2023-02-01T11:34:55;6.60;87.00
48579;DHT22;34357;51.948;6.132;2023-02-01T11:37:37;6.70;86.30
48579;DHT22;34357;51.948;6.132;2023-02-01T11:40:29;6.70;85.90
48579;DHT22;34357;51.948;6.132;2023-02-01T11:45:32;6.80;85.50
48579;DHT22;34357;51.948;6.132;2023-02-01T11:48:00;6.80;85.50
48579;DHT22;34357;51.948;6.132;2023-02-01T11:53:24;6.60;87.20
48579;DHT22;34357;51.948;6.132;2023-02-01T12:09:07;6.60;87.90
48579;DHT22;34357;51.948;6.132;2023-02-01T12:30:39;7.10;85.50
48579;DHT22;34357;51.948;6.132;2023-02-01T12:46:31;7.30;84.90
48579;DHT22;34357;51.948;6.132;2023-02-01T12:51:41;7.30;84.30
48579;DHT22;34357;51.948;6.132;2023-02-01T13:05:27;7.60;82.60
48579;DHT22;34357;51.948;6.132;2023-02-01T13:08:00;7.60;82.60
48579;DHT22;34357;51.948;6.132;2023-02-01T13:13:00;7.60;82.50
48579;DHT22;34357;51.948;6.132;2023-02-01T13:15:39;7.60;82.70
48579;DHT22;34357;51.948;6.132;2023-02-01T13:18:09;7.50;82.80
48579;DHT22;34357;51.948;6.132;2023-02-01T13:20:50;7.50;82.20
48579;DHT22;34357;51.948;6.132;2023-02-01T13:23:34;7.60;82.40
48579;DHT22;34357;51.948;6.132;2023-02-01T13:26:00;7.60;81.60
48579;DHT22;34357;51.948;6.132;2023-02-01T13:28:49;7.60;81.60
48579;DHT22;34357;51.948;6.132;2023-02-01T13:42:54;7.50;82.10
48579;DHT22;34357;51.948;6.132;2023-02-01T13:45:21;7.50;82.20
48579;DHT22;34357;51.948;6.132;2023-02-01T13:47:51;7.50;82.10
48579;DHT22;34357;51.948;6.132;2023-02-01T13:50:49;7.60;82.00
48579;DHT22;34357;51.948;6.132;2023-02-01T13:53:18;7.60;81.80
48579;DHT22;34357;51.948;6.132;2023-02-01T13:55:55;7.60;81.20
48579;DHT22;34357;51.948;6.132;2023-02-01T13:58:33;7.80;81.20
48579;DHT22;34357;51.948;6.132;2023-02-01T14:03:46;7.80;81.90
48579;DHT22;34357;51.948;6.132;2023-02-01T14:08:44;7.60;82.40
48579;DHT22;34357;51.948;6.132;2023-02-01T14:19:27;7.60;83.00
48579;DHT22;34357;51.948;6.132;2023-02-01T14:21:55;7.40;83.80
48579;DHT22;34357;51.948;6.132;2023-02-01T14:24:29;7.40;84.60
48579;DHT22;34357;51.948;6.132;2023-02-01T14:27:17;7.40;84.20
48579;DHT22;34357;51.948;6.132;2023-02-01T14:29:51;7.40;83.60
48579;DHT22;34357;51.948;6.132;2023-02-01T14:32:25;7.50;83.10
48579;DHT22;34357;51.948;6.132;2023-02-01T14:34:56;7.60;82.60
48579;DHT22;34357;51.948;6.132;2023-02-01T14:37:26;7.60;82.20
48579;DHT22;34357;51.948;6.132;2023-02-01T14:47:43;7.70;81.10
48579;DHT22;34357;51.948;6.132;2023-02-01T15:00:59;7.70;81.70
48579;DHT22;34357;51.948;6.132;2023-02-01T15:03:36;7.60;82.20
48579;DHT22;34357;51.948;6.132;2023-02-01T15:06:04;7.60;82.70
48579;DHT22;34357;51.948;6.132;2023-02-01T15:08:35;7.50;82.60
48579;DHT22;34357;51.948;6.132;2023-02-01T15:11:12;7.60;82.40
48579;DHT22;34357;51.948;6.132;2023-02-01T15:13:39;7.70;82.00
48579;DHT22;34357;51.948;6.132;2023-02-01T15:18:31;7.70;81.80
48579;DHT22;34357;51.948;6.132;2023-02-01T15:21:02;7.80;81.60
48579;DHT22;34357;51.948;6.132;2023-02-01T15:23:28;7.80;81.80
48579;DHT22;34357;51.948;6.132;2023-02-01T15:25:55;7.80;81.70
48579;DHT22;34357;51.948;6.132;2023-02-01T15:28:21;7.80;81.70
48579;DHT22;34357;51.948;6.132;2023-02-01T15:31:03;7.70;83.50
48579;DHT22;34357;51.948;6.132;2023-02-01T15:33:30;7.50;84.70
48579;DHT22;34357;51.948;6.132;2023-02-01T15:38:33;7.30;86.30
48579;DHT22;34357;51.948;6.132;2023-02-01T15:43:38;7.10;87.30
48579;DHT22;34357;51.948;6.132;2023-02-01T15:46:15;7.10;87.60
48579;DHT22;34357;51.948;6.132;2023-02-01T15:48:47;6.70;87.60
48579;DHT22;34357;51.948;6.132;2023-02-01T15:51:24;5.40;87.10
48579;DHT22;34357;51.948;6.132;2023-02-01T15:54:19;4.90;88.70
48579;DHT22;34357;51.948;6.132;2023-02-01T15:56:51;4.80;90.20
48579;DHT22;34357;51.948;6.132;2023-02-01T15:59:29;4.90;90.90
48579;DHT22;34357;51.948;6.132;2023-02-01T16:01:56;4.90;91.50
48579;DHT22;34357;51.948;6.132;2023-02-01T16:04:29;5.00;91.80
48579;DHT22;34357;51.948;6.132;2023-02-01T16:07:00;5.00;92.00
48579;DHT22;34357;51.948;6.132;2023-02-01T16:09:40;5.10;92.30
48579;DHT22;34357;51.948;6.132;2023-02-01T16:12:33;5.20;92.50
48579;DHT22;34357;51.948;6.132;2023-02-01T16:15:02;5.30;92.50
48579;DHT22;34357;51.948;6.132;2023-02-01T16:17:27;5.30;92.60
48579;DHT22;34357;51.948;6.132;2023-02-01T16:19:53;5.30;92.60
48579;DHT22;34357;51.948;6.132;2023-02-01T16:22:19;5.30;92.50
48579;DHT22;34357;51.948;6.132;2023-02-01T16:24:45;5.50;92.10
48579;DHT22;34357;51.948;6.132;2023-02-01T16:27:11;5.50;92.10
48579;DHT22;34357;51.948;6.132;2023-02-01T16:29:36;5.70;92.10
48579;DHT22;34357;51.948;6.132;2023-02-01T16:32:02;5.80;92.00
48579;DHT22;34357;51.948;6.132;2023-02-01T16:34:29;5.90;92.00
48579;DHT22;34357;51.948;6.132;2023-02-01T16:36:55;5.90;92.00
48579;DHT22;34357;51.948;6.132;2023-02-01T16:39:23;5.90;92.00
48579;DHT22;34357;51.948;6.132;2023-02-01T16:41:49;5.90;91.90
48579;DHT22;34357;51.948;6.132;2023-02-01T16:44:15;6.00;91.90
48579;DHT22;34357;51.948;6.132;2023-02-01T16:46:43;6.10;92.00
48579;DHT22;34357;51.948;6.132;2023-02-01T16:49:22;6.20;91.80
48579;DHT22;34357;51.948;6.132;2023-02-01T16:51:49;6.30;91.20
48579;DHT22;34357;51.948;6.132;2023-02-01T16:54:16;6.50;90.80
48579;DHT22;34357;51.948;6.132;2023-02-01T16:56:42;6.60;90.60
48579;DHT22;34357;51.948;6.132;2023-02-01T16:59:09;6.70;90.20
48579;DHT22;34357;51.948;6.132;2023-02-01T17:01:35;6.80;89.60
48579;DHT22;34357;51.948;6.132;2023-02-01T17:04:03;6.80;89.60
48579;DHT22;34357;51.948;6.132;2023-02-01T17:06:29;6.90;89.30
48579;DHT22;34357;51.948;6.132;2023-02-01T17:08:58;6.90;89.10
48579;DHT22;34357;51.948;6.132;2023-02-01T17:11:28;6.90;89.00
48579;DHT22;34357;51.948;6.132;2023-02-01T17:13:57;6.90;88.90
48579;DHT22;34357;51.948;6.132;2023-02-01T17:16:30;6.80;89.50
48579;DHT22;34357;51.948;6.132;2023-02-01T17:19:00;6.60;89.60
48579;DHT22;34357;51.948;6.132;2023-02-01T17:21:29;6.60;89.70
48579;DHT22;34357;51.948;6.132;2023-02-01T17:23:55;6.50;90.20
48579;DHT22;34357;51.948;6.132;2023-02-01T17:26:23;6.40;90.50
48579;DHT22;34357;51.948;6.132;2023-02-01T17:28:48;6.40;90.70
48579;DHT22;34357;51.948;6.132;2023-02-01T17:31:15;6.10;90.00
48579;DHT22;34357;51.948;6.132;2023-02-01T17:33:42;5.90;90.10
48579;DHT22;34357;51.948;6.132;2023-02-01T17:36:16;5.40;89.80
48579;DHT22;34357;51.948;6.132;2023-02-01T17:38:43;4.80;90.00
48579;DHT22;34357;51.948;6.132;2023-02-01T17:41:10;4.70;91.30
48579;DHT22;34357;51.948;6.132;2023-02-01T17:43:36;4.90;91.60
48579;DHT22;34357;51.948;6.132;2023-02-01T17:46:12;5.10;91.70
48579;DHT22;34357;51.948;6.132;2023-02-01T17:48:38;5.20;91.60
48579;DHT22;34357;51.948;6.132;2023-02-01T17:51:11;5.20;91.70
48579;DHT22;34357;51.948;6.132;2023-02-01T17:53:37;5.30;91.80
48579;DHT22;34357;51.948;6.132;2023-02-01T17:56:03;5.20;91.90
48579;DHT22;34357;51.948;6.132;2023-02-01T17:58:29;5.20;92.00
48579;DHT22;34357;51.948;6.132;2023-02-01T18:00:58;5.30;92.10
48579;DHT22;34357;51.948;6.132;2023-02-01T18:03:28;5.20;92.20
48579;DHT22;34357;51.948;6.132;2023-02-01T18:05:56;5.20;92.30
48579;DHT22;34357;51.948;6.132;2023-02-01T18:08:25;5.20;92.50
48579;DHT22;34357;51.948;6.132;2023-02-01T18:10:53;5.50;92.60
48579;DHT22;34357;51.948;6.132;2023-02-01T18:13:20;5.70;92.70
48579;DHT22;34357;51.948;6.132;2023-02-01T18:15:46;5.90;92.40
48579;DHT22;34357;51.948;6.132;2023-02-01T18:18:12;6.20;91.80
48579;DHT22;34357;51.948;6.132;2023-02-01T18:20:39;6.20;91.50
48579;DHT22;34357;51.948;6.132;2023-02-01T18:23:13;6.40;91.20
48579;DHT22;34357;51.948;6.132;2023-02-01T18:25:39;6.50;90.60
48579;DHT22;34357;51.948;6.132;2023-02-01T18:28:05;6.60;90.10
48579;DHT22;34357;51.948;6.132;2023-02-01T18:30:32;6.70;89.90
48579;DHT22;34357;51.948;6.132;2023-02-01T18:32:58;6.80;89.30
48579;DHT22;34357;51.948;6.132;2023-02-01T18:35:30;6.90;89.30
48579;DHT22;34357;51.948;6.132;2023-02-01T18:37:56;6.80;89.40
48579;DHT22;34357;51.948;6.132;2023-02-01T18:40:25;6.80;90.00
48579;DHT22;34357;51.948;6.132;2023-02-01T18:42:52;6.80;89.90
48579;DHT22;34357;51.948;6.132;2023-02-01T18:45:36;6.60;90.40
48579;DHT22;34357;51.948;6.132;2023-02-01T18:48:03;6.40;91.90
48579;DHT22;34357;51.948;6.132;2023-02-01T18:50:31;6.20;91.90
48579;DHT22;34357;51.948;6.132;2023-02-01T18:52:59;6.00;92.00